Time;durP1;ratioP1;P1;durP2;ratioP2;P2;SDS_P1;SDS_P2;PMS_P1;PMS_P2;Temp;Humidity;BMP_temperature;BMP_pressure;BME280_temperature;BME280_humidity;BME280_pressure;Samples;Min_cycle;Max_cycle;Signal;HPM_P1;HPM_P2
2024/03/11 00:00:15;;;;;;;1.83;1.73;;;8.20;99.90;;;;;;5023662;28;20210;-88
2024/03/11 00:02:42;;;;;;;2.45;2.25;;;8.60;99.90;;;;;;5040761;28;20809;-88
2024/03/11 00:05:08;;;;;;;1.95;1.85;;;8.90;99.90;;;;;;5026224;28;20187;-89
2024/03/11 00:07:37;;;;;;;2.60;2.40;;;8.70;99.90;;;;;;5026935;28;20214;-88
2024/03/11 00:10:05;;;;;;;2.08;1.90;;;8.60;99.90;;;;;;5027131;28;20269;-88
2024/03/11 00:12:38;;;;;;;2.10;2.00;;;8.70;99.90;;;;;;5020617;28;20233;-89
2024/03/11 00:15:07;;;;;;;2.10;1.90;;;9.00;99.90;;;;;;5024710;28;20186;-87
2024/03/11 00:17:35;;;;;;;2.40;2.20;;;8.60;99.90;;;;;;5020581;28;20194;-88
2024/03/11 00:20:01;;;;;;;2.33;2.03;;;8.70;99.90;;;;;;5021142;28;20195;-88
2024/03/11 00:22:26;;;;;;;2.20;2.00;;;9.10;99.90;;;;;;5027646;28;20190;-88
2024/03/11 00:24:52;;;;;;;2.30;2.10;;;8.90;99.90;;;;;;5023328;28;20444;-88
2024/03/11 00:27:17;;;;;;;2.23;2.03;;;8.30;99.90;;;;;;5027294;28;20576;-87
2024/03/11 00:29:43;;;;;;;2.27;2.07;;;8.60;99.90;;;;;;5026521;28;20213;-88
2024/03/11 00:32:09;;;;;;;2.43;2.23;;;8.20;99.90;;;;;;5022150;28;20688;-88
2024/03/11 00:34:35;;;;;;;1.77;1.67;;;8.20;99.90;;;;;;5025703;28;20187;-88
2024/03/11 00:37:01;;;;;;;2.60;2.40;;;8.70;99.90;;;;;;5009414;28;20214;-88
2024/03/11 00:39:27;;;;;;;2.50;2.30;;;8.60;99.90;;;;;;5037922;28;20217;-86
2024/03/11 00:41:53;;;;;;;2.10;1.90;;;8.90;99.90;;;;;;5025625;28;20185;-87
2024/03/11 00:44:21;;;;;;;2.03;1.93;;;8.80;99.90;;;;;;5021368;28;20183;-88
2024/03/11 00:46:49;;;;;;;2.20;2.00;;;8.20;99.90;;;;;;5022469;28;20203;-88
2024/03/11 00:49:16;;;;;;;2.25;2.00;;;8.60;99.90;;;;;;5019040;28;20194;-88
2024/03/11 00:51:41;;;;;;;2.58;2.38;;;8.70;99.90;;;;;;5023891;28;20222;-88
2024/03/11 00:54:07;;;;;;;2.40;2.20;;;8.90;99.90;;;;;;5022843;28;20514;-89
2024/03/11 00:56:32;;;;;;;2.33;2.20;;;8.80;99.90;;;;;;5022731;28;20207;-88
2024/03/11 00:58:59;;;;;;;2.20;2.10;;;8.50;99.90;;;;;;5025443;28;20179;-88
2024/03/11 01:01:25;;;;;;;2.53;2.33;;;8.20;99.90;;;;;;5024961;28;20228;-86
2024/03/11 01:03:53;;;;;;;2.00;1.90;;;8.10;99.90;;;;;;5022384;28;20274;-88
2024/03/11 01:06:19;;;;;;;2.00;1.90;;;8.60;99.90;;;;;;5025149;28;20206;-88
2024/03/11 01:08:45;;;;;;;2.25;2.15;;;8.60;99.90;;;;;;5023375;28;20187;-88
2024/03/11 01:11:11;;;;;;;2.25;2.05;;;8.90;99.90;;;;;;5020222;28;20699;-87
2024/03/11 01:13:37;;;;;;;2.30;2.10;;;8.60;99.90;;;;;;5021826;28;20304;-88
2024/03/11 01:16:03;;;;;;;2.20;2.00;;;8.60;99.90;;;;;;5021468;28;20214;-88
2024/03/11 01:18:28;;;;;;;4.03;2.00;;;8.80;99.90;;;;;;5027292;28;20190;-87
2024/03/11 01:20:54;;;;;;;2.40;2.20;;;8.50;99.90;;;;;;5021426;28;20484;-87
2024/03/11 01:23:20;;;;;;;2.25;2.10;;;8.60;99.90;;;;;;5025537;28;20241;-88
2024/03/11 01:25:46;;;;;;;2.40;2.20;;;8.80;99.90;;;;;;5023020;28;20204;-88
2024/03/11 01:28:11;;;;;;;2.20;2.00;;;8.50;99.90;;;;;;5024913;28;20212;-87
2024/03/11 01:30:38;;;;;;;2.50;2.30;;;8.60;99.90;;;;;;5022905;28;20225;-87
2024/03/11 01:33:05;;;;;;;2.47;2.28;;;8.70;99.90;;;;;;5029628;28;20183;-87
2024/03/11 01:35:31;;;;;;;2.22;2.00;;;8.40;99.90;;;;;;5028685;28;20206;-88
2024/03/11 01:37:57;;;;;;;2.10;1.95;;;8.10;99.90;;;;;;5026343;28;20186;-88
2024/03/11 01:40:24;;;;;;;2.17;1.83;;;8.40;99.90;;;;;;5025823;28;20217;-88
2024/03/11 01:42:50;;;;;;;1.85;1.75;;;8.50;99.90;;;;;;5025389;28;20187;-88
2024/03/11 01:45:16;;;;;;;2.00;1.63;;;8.40;99.90;;;;;;5024552;28;20236;-88
2024/03/11 01:47:42;;;;;;;1.98;1.73;;;8.90;99.90;;;;;;5025732;28;20183;-88
2024/03/11 01:50:08;;;;;;;3.47;1.98;;;8.00;99.90;;;;;;5040007;28;20190;-87
2024/03/11 01:52:44;;;;;;;5.50;1.92;;;8.30;99.90;;;;;;5026751;28;20277;-87
2024/03/11 01:55:10;;;;;;;1.80;1.70;;;8.50;99.90;;;;;;5024193;28;20662;-87
2024/03/11 01:57:37;;;;;;;2.67;1.70;;;7.70;99.90;;;;;;5027668;28;20241;-88
2024/03/11 02:00:08;;;;;;;1.85;1.75;;;7.70;99.90;;;;;;5037361;28;20464;-88
2024/03/11 02:02:34;;;;;;;2.85;1.70;;;8.20;99.90;;;;;;5027260;28;20189;-87
2024/03/11 02:05:01;;;;;;;1.55;1.45;;;8.20;99.90;;;;;;5032719;28;20229;-88
2024/03/11 02:07:29;;;;;;;1.67;1.58;;;8.20;99.90;;;;;;5025858;28;20206;-88
2024/03/11 02:09:56;;;;;;;2.22;1.55;;;8.30;99.90;;;;;;5024548;28;20385;-87
2024/03/11 02:12:21;;;;;;;2.00;1.80;;;8.00;99.90;;;;;;5031437;28;20262;-87
2024/03/11 02:14:47;;;;;;;1.70;1.60;;;7.60;99.90;;;;;;5029071;28;20210;-87
2024/03/11 02:17:14;;;;;;;1.67;1.57;;;8.20;99.90;;;;;;5030242;28;20281;-87
2024/03/11 02:19:40;;;;;;;1.80;1.70;;;8.00;99.90;;;;;;5027500;28;20203;-87
2024/03/11 02:22:08;;;;;;;1.80;1.70;;;7.60;99.90;;;;;;5027132;28;20274;-87
2024/03/11 02:24:35;;;;;;;1.73;1.63;;;8.10;99.90;;;;;;5024059;28;20817;-88
2024/03/11 02:27:02;;;;;;;1.60;1.50;;;7.70;99.90;;;;;;5023465;28;20202;-87
2024/03/11 02:29:28;;;;;;;1.55;1.45;;;7.60;99.90;;;;;;5022553;28;20704;-87
2024/03/11 02:31:54;;;;;;;1.80;1.70;;;7.60;99.90;;;;;;5030018;28;20186;-88
2024/03/11 02:34:20;;;;;;;2.33;1.33;;;7.90;99.90;;;;;;5021526;28;20562;-88
2024/03/11 02:36:48;;;;;;;3.20;1.80;;;8.10;99.90;;;;;;5025285;28;20206;-89
2024/03/11 02:39:15;;;;;;;1.70;1.60;;;8.00;99.90;;;;;;5028361;28;20236;-89
2024/03/11 02:41:42;;;;;;;2.28;2.08;;;8.30;99.90;;;;;;5027638;28;20182;-87
2024/03/11 02:44:08;;;;;;;1.83;1.67;;;7.90;99.90;;;;;;5027145;28;20555;-87
2024/03/11 02:46:34;;;;;;;2.03;1.90;;;7.50;99.90;;;;;;5031399;28;20211;-87
2024/03/11 02:49:00;;;;;;;1.30;1.20;;;8.10;99.90;;;;;;5042000;28;20244;-88
2024/03/11 02:51:25;;;;;;;1.77;1.67;;;7.80;99.90;;;;;;5020640;28;20665;-87
2024/03/11 02:53:51;;;;;;;1.50;1.40;;;8.30;99.90;;;;;;5024891;28;20757;-87
2024/03/11 02:56:17;;;;;;;1.67;1.57;;;7.40;99.90;;;;;;5023832;28;20206;-87
2024/03/11 02:58:43;;;;;;;1.70;1.60;;;7.10;99.90;;;;;;5036903;28;20662;-89
2024/03/11 03:01:09;;;;;;;2.40;2.20;;;7.70;99.90;;;;;;5024188;28;20852;-87
2024/03/11 03:03:35;;;;;;;1.65;1.52;;;7.30;99.90;;;;;;5030936;28;20446;-88
2024/03/11 03:06:01;;;;;;;1.40;1.30;;;7.60;99.90;;;;;;5034075;28;20197;-89
2024/03/11 03:08:27;;;;;;;1.95;1.85;;;7.90;99.90;;;;;;5030196;28;20690;-87
2024/03/11 03:10:53;;;;;;;1.70;1.60;;;7.70;99.90;;;;;;5029130;28;20183;-88
2024/03/11 03:13:19;;;;;;;1.70;1.60;;;7.90;99.90;;;;;;5038790;28;20453;-87
2024/03/11 03:15:45;;;;;;;1.80;1.70;;;7.90;99.90;;;;;;5026255;28;20776;-87
2024/03/11 03:18:11;;;;;;;1.87;1.77;;;7.70;99.90;;;;;;5022070;28;20236;-87
2024/03/11 03:20:38;;;;;;;1.90;1.70;;;7.50;99.90;;;;;;5028687;28;20479;-87
2024/03/11 03:23:03;;;;;;;1.70;1.60;;;7.60;99.90;;;;;;5037634;28;20185;-86
2024/03/11 03:25:33;;;;;;;1.67;1.57;;;7.30;99.90;;;;;;5036899;28;20281;-87
2024/03/11 03:28:02;;;;;;;1.75;1.65;;;7.50;99.90;;;;;;5034362;28;20551;-88
2024/03/11 03:30:28;;;;;;;1.55;1.45;;;7.50;99.90;;;;;;5042532;28;20182;-88
2024/03/11 03:32:54;;;;;;;1.90;1.80;;;6.80;99.90;;;;;;5040694;28;20179;-88
2024/03/11 03:35:20;;;;;;;1.57;1.47;;;7.40;99.90;;;;;;5023160;28;20277;-88
2024/03/11 03:37:45;;;;;;;2.03;1.77;;;7.10;99.90;;;;;;5025551;28;20237;-87
2024/03/11 03:40:15;;;;;;;1.67;1.57;;;7.20;99.90;;;;;;5024544;28;20702;-87
2024/03/11 03:42:42;;;;;;;1.33;1.23;;;7.20;99.90;;;;;;5030667;28;20198;-89
2024/03/11 03:45:09;;;;;;;1.35;1.25;;;7.30;99.90;;;;;;5041214;28;20290;-89
2024/03/11 03:47:36;;;;;;;1.90;1.80;;;7.20;99.90;;;;;;5030565;28;20685;-88
2024/03/11 03:50:02;;;;;;;2.70;1.50;;;7.30;99.90;;;;;;5025229;28;20186;-87
2024/03/11 03:52:29;;;;;;;1.53;1.43;;;7.00;99.90;;;;;;5026994;28;20186;-88
2024/03/11 03:54:55;;;;;;;1.77;1.67;;;6.90;99.90;;;;;;5022660;28;20493;-87
2024/03/11 03:57:21;;;;;;;1.92;1.80;;;6.90;99.90;;;;;;5029159;28;20224;-87
2024/03/11 03:59:48;;;;;;;1.80;1.70;;;7.00;99.90;;;;;;5023985;28;20675;-89
2024/03/11 04:02:14;;;;;;;2.08;1.90;;;7.50;99.90;;;;;;5029957;28;20190;-88
2024/03/11 04:04:40;;;;;;;2.17;2.07;;;7.00;99.90;;;;;;5021800;28;20189;-88
2024/03/11 04:07:06;;;;;;;2.35;2.15;;;6.90;99.90;;;;;;5022829;28;20468;-87
2024/03/11 04:09:31;;;;;;;2.20;1.97;;;6.80;99.90;;;;;;5024723;28;20209;-88
2024/03/11 04:11:57;;;;;;;2.40;1.80;;;7.40;99.90;;;;;;5022333;28;20498;-89
2024/03/11 04:14:22;;;;;;;2.10;1.90;;;6.90;99.90;;;;;;5027515;28;20202;-89
2024/03/11 04:16:48;;;;;;;1.97;1.60;;;7.10;99.90;;;;;;5023543;28;20245;-88
2024/03/11 04:19:14;;;;;;;2.30;2.10;;;7.30;99.90;;;;;;5028354;28;20191;-88
2024/03/11 04:21:39;;;;;;;1.83;1.73;;;7.10;99.90;;;;;;5025636;28;20183;-88
2024/03/11 04:24:05;;;;;;;2.10;1.60;;;6.70;99.90;;;;;;5021946;28;20183;-88
2024/03/11 04:26:31;;;;;;;1.42;1.33;;;6.70;99.90;;;;;;5025487;28;20198;-87
2024/03/11 04:28:58;;;;;;;1.50;1.40;;;7.00;99.90;;;;;;5028493;28;20811;-88
2024/03/11 04:31:24;;;;;;;1.63;1.52;;;6.00;99.90;;;;;;5043726;28;20597;-87
2024/03/11 04:33:50;;;;;;;2.13;1.93;;;6.10;99.90;;;;;;5026208;28;20286;-87
2024/03/11 04:36:17;;;;;;;1.95;1.85;;;6.50;99.90;;;;;;5025081;28;20354;-88
2024/03/11 04:38:42;;;;;;;2.40;2.20;;;6.80;99.90;;;;;;5023322;28;20209;-86
2024/03/11 04:41:08;;;;;;;1.83;1.70;;;6.30;99.90;;;;;;5032450;28;20306;-87
2024/03/11 04:43:36;;;;;;;2.60;2.07;;;6.80;99.90;;;;;;5029975;28;20191;-87
2024/03/11 04:46:02;;;;;;;1.80;1.70;;;5.90;99.90;;;;;;5020744;28;20227;-87
2024/03/11 04:48:28;;;;;;;1.80;1.70;;;6.10;99.90;;;;;;5027829;28;20588;-88
2024/03/11 04:50:53;;;;;;;2.07;1.97;;;6.70;99.90;;;;;;5024663;28;20292;-88
2024/03/11 04:53:19;;;;;;;6.57;6.03;;;6.50;99.90;;;;;;5038977;28;20312;-85
2024/03/11 04:55:44;;;;;;;2.50;2.30;;;6.20;99.90;;;;;;5029810;28;20214;-85
2024/03/11 04:58:10;;;;;;;2.03;1.93;;;6.10;99.90;;;;;;5027526;28;20225;-85
2024/03/11 05:00:36;;;;;;;1.87;1.77;;;5.70;99.90;;;;;;5031861;28;20209;-86
2024/03/11 05:03:03;;;;;;;1.70;1.60;;;5.70;99.90;;;;;;5025656;28;20495;-85
2024/03/11 05:05:35;;;;;;;2.20;1.90;;;6.20;99.90;;;;;;5026825;28;20290;-86
2024/03/11 05:08:01;;;;;;;2.70;2.20;;;6.20;99.90;;;;;;5040826;28;20197;-85
2024/03/11 05:10:27;;;;;;;2.70;2.50;;;5.70;99.90;;;;;;5027870;28;20190;-85
2024/03/11 05:12:52;;;;;;;3.43;2.03;;;5.60;99.90;;;;;;5030202;28;20444;-85
2024/03/11 05:15:18;;;;;;;2.30;2.10;;;6.20;99.90;;;;;;5026494;28;20194;-84
2024/03/11 05:17:43;;;;;;;2.30;2.10;;;6.40;99.90;;;;;;5031610;28;20636;-85
2024/03/11 05:20:11;;;;;;;2.07;1.97;;;5.80;99.90;;;;;;5019519;28;20234;-87
2024/03/11 05:22:37;;;;;;;3.00;2.80;;;6.00;99.90;;;;;;5021409;28;20187;-89
2024/03/11 05:25:06;;;;;;;2.50;2.30;;;6.10;99.90;;;;;;5023985;28;20194;-89
2024/03/11 05:27:32;;;;;;;2.70;2.50;;;6.20;99.90;;;;;;5028972;28;20189;-88
2024/03/11 05:29:58;;;;;;;2.85;2.65;;;6.10;99.90;;;;;;5023118;28;20194;-88
2024/03/11 05:32:23;;;;;;;2.57;2.23;;;5.80;99.90;;;;;;5026794;28;20558;-88
2024/03/11 05:34:49;;;;;;;2.60;2.40;;;6.20;99.90;;;;;;5030370;28;20194;-87
2024/03/11 05:37:15;;;;;;;2.50;2.30;;;6.30;99.90;;;;;;5026189;28;20304;-88
2024/03/11 05:39:40;;;;;;;2.50;2.30;;;6.00;99.90;;;;;;5029696;28;20217;-88
2024/03/11 05:42:08;;;;;;;3.40;3.10;;;6.20;99.90;;;;;;5025338;28;20442;-88
2024/03/11 05:44:34;;;;;;;5.57;5.05;;;6.10;99.90;;;;;;5023094;28;20183;-88
2024/03/11 05:47:00;;;;;;;3.30;2.67;;;5.60;99.90;;;;;;5020977;28;20202;-88
2024/03/11 05:49:28;;;;;;;2.75;2.50;;;6.50;99.90;;;;;;5030874;28;20502;-88
2024/03/11 05:51:57;;;;;;;2.42;2.22;;;5.90;99.90;;;;;;5027059;28;20806;-87
2024/03/11 05:54:24;;;;;;;3.63;3.25;;;6.10;99.90;;;;;;5028168;28;20464;-88
2024/03/11 05:57:00;;;;;;;3.45;3.15;;;6.10;99.90;;;;;;5026428;28;20845;-88
2024/03/11 05:59:27;;;;;;;4.25;3.85;;;6.20;99.90;;;;;;5024050;28;20192;-88
2024/03/11 06:01:55;;;;;;;8.68;4.68;;;6.10;99.90;;;;;;5024453;28;20192;-88
2024/03/11 06:04:20;;;;;;;5.35;3.10;;;6.60;99.90;;;;;;5030964;28;20827;-88
2024/03/11 06:06:48;;;;;;;2.33;2.20;;;6.10;99.90;;;;;;5030091;28;20260;-88
2024/03/11 06:09:15;;;;;;;3.00;2.63;;;6.30;99.90;;;;;;5024639;28;20188;-87
2024/03/11 06:11:45;;;;;;;2.55;2.33;;;6.20;99.90;;;;;;5031190;28;20192;-88
2024/03/11 06:14:12;;;;;;;2.25;2.05;;;6.10;99.90;;;;;;5032063;28;20216;-88
2024/03/11 06:16:47;;;;;;;2.90;2.70;;;6.30;99.90;;;;;;5042280;28;20224;-88
2024/03/11 06:19:17;;;;;;;4.07;2.67;;;6.00;99.90;;;;;;5029728;28;20208;-89
2024/03/11 06:21:43;;;;;;;2.30;2.10;;;6.20;99.90;;;;;;5033297;28;20255;-88
2024/03/11 06:24:10;;;;;;;3.10;2.80;;;6.30;99.90;;;;;;5033618;28;20186;-88
2024/03/11 06:26:37;;;;;;;3.20;2.83;;;6.00;99.90;;;;;;5047550;28;20473;-87
2024/03/11 06:29:03;;;;;;;3.08;2.85;;;6.20;99.90;;;;;;5029210;28;20212;-87
2024/03/11 06:31:29;;;;;;;2.67;2.25;;;5.70;99.90;;;;;;5035385;28;20914;-88
2024/03/11 06:33:55;;;;;;;2.45;2.25;;;6.20;99.90;;;;;;5039777;28;20227;-87
2024/03/11 06:36:21;;;;;;;2.40;2.03;;;6.40;99.90;;;;;;5032631;28;20213;-87
2024/03/11 06:38:49;;;;;;;2.75;2.47;;;6.00;99.90;;;;;;5050466;28;20822;-86
2024/03/11 06:41:15;;;;;;;2.13;1.95;;;5.90;99.90;;;;;;5029791;28;20864;-88
2024/03/11 06:43:41;;;;;;;1.92;1.83;;;6.40;99.90;;;;;;5028626;28;20189;-87
2024/03/11 06:46:06;;;;;;;2.80;2.10;;;6.40;99.90;;;;;;5027749;28;21377;-88
2024/03/11 06:48:32;;;;;;;2.50;2.30;;;6.20;99.90;;;;;;5029068;28;20182;-88
2024/03/11 06:50:57;;;;;;;5.93;2.20;;;6.60;99.90;;;;;;5020400;28;20457;-88
2024/03/11 06:53:23;;;;;;;2.47;2.00;;;6.70;99.90;;;;;;5023405;28;20201;-88
2024/03/11 06:55:49;;;;;;;2.72;2.10;;;6.90;99.90;;;;;;5022641;28;20202;-88
2024/03/11 06:58:15;;;;;;;2.10;1.90;;;7.20;99.90;;;;;;5018892;28;20171;-88
2024/03/11 07:00:41;;;;;;;1.55;1.27;;;7.50;99.90;;;;;;5021355;28;20198;-87
2024/03/11 07:03:07;;;;;;;1.65;1.55;;;8.00;99.90;;;;;;5024355;28;20193;-88
2024/03/11 07:05:33;;;;;;;1.63;1.53;;;7.90;99.90;;;;;;5041195;28;20202;-88
2024/03/11 07:07:58;;;;;;;7.20;2.50;;;7.90;99.90;;;;;;5021806;28;20545;-87
2024/03/11 07:10:24;;;;;;;1.60;1.40;;;8.60;99.90;;;;;;5020828;28;20188;-88
2024/03/11 07:12:50;;;;;;;2.33;1.58;;;8.50;99.90;;;;;;5029065;28;20194;-87
2024/03/11 07:15:16;;;;;;;1.13;1.03;;;9.00;99.90;;;;;;5023554;28;20198;-88
2024/03/11 07:17:42;;;;;;;3.15;1.40;;;8.40;99.90;;;;;;5026797;28;20276;-87
2024/03/11 07:20:08;;;;;;;1.67;1.10;;;8.90;99.90;;;;;;5027281;28;20302;-88
2024/03/11 07:22:38;;;;;;;1.63;1.38;;;8.80;99.90;;;;;;5020404;28;20197;-87
2024/03/11 07:25:10;;;;;;;1.63;1.30;;;9.10;99.90;;;;;;5038767;28;20171;-87
2024/03/11 07:27:38;;;;;;;2.38;2.17;;;9.80;99.90;;;;;;5029619;28;20187;-87
2024/03/11 07:30:09;;;;;;;1.50;1.40;;;10.00;99.90;;;;;;5033798;28;20188;-87
2024/03/11 07:32:37;;;;;;;2.17;1.80;;;11.10;99.90;;;;;;5034178;28;20696;-87
2024/03/11 07:35:03;;;;;;;2.55;0.90;;;12.00;99.90;;;;;;5035010;28;20766;-88
2024/03/11 07:37:29;;;;;;;2.47;1.13;;;13.30;97.70;;;;;;5037794;28;20202;-87
2024/03/11 07:39:56;;;;;;;1.73;0.90;;;14.30;95.50;;;;;;5026860;28;20589;-87
2024/03/11 07:42:22;;;;;;;1.00;0.90;;;15.30;93.00;;;;;;5025566;28;20206;-87
2024/03/11 07:44:51;;;;;;;1.30;1.20;;;15.10;91.50;;;;;;5027479;28;20604;-87
2024/03/11 07:47:17;;;;;;;1.33;1.13;;;15.10;91.60;;;;;;5020870;28;20605;-87
2024/03/11 07:49:43;;;;;;;1.50;1.40;;;15.00;91.50;;;;;;5025751;28;20281;-87
2024/03/11 07:52:09;;;;;;;2.13;1.00;;;14.90;90.70;;;;;;5022931;28;20978;-87
2024/03/11 07:54:35;;;;;;;3.35;1.27;;;15.70;90.20;;;;;;5024366;28;20233;-86
2024/03/11 07:57:00;;;;;;;1.10;1.00;;;15.80;88.60;;;;;;5026505;28;20233;-87
2024/03/11 07:59:26;;;;;;;1.20;1.10;;;16.10;86.60;;;;;;5021972;28;20685;-87
2024/03/11 08:01:51;;;;;;;2.83;1.40;;;16.10;85.90;;;;;;5038163;28;20186;-87
2024/03/11 08:04:17;;;;;;;2.53;1.67;;;16.20;87.60;;;;;;5021047;28;20190;-87
2024/03/11 08:06:42;;;;;;;1.03;0.93;;;16.00;88.10;;;;;;5023342;28;20229;-87
2024/03/11 08:09:09;;;;;;;1.90;1.00;;;15.60;86.60;;;;;;5019127;28;20217;-87
2024/03/11 08:11:35;;;;;;;1.08;0.90;;;16.30;86.80;;;;;;5024540;28;20189;-88
2024/03/11 08:14:02;;;;;;;1.00;0.80;;;16.00;85.80;;;;;;5024790;28;20190;-87
2024/03/11 08:16:28;;;;;;;1.00;0.90;;;17.20;85.90;;;;;;5024666;28;20210;-88
2024/03/11 08:18:54;;;;;;;2.80;1.10;;;16.30;84.40;;;;;;5024000;28;20213;-88
2024/03/11 08:21:20;;;;;;;1.47;1.20;;;16.90;84.10;;;;;;5019054;28;20207;-86
2024/03/11 08:23:46;;;;;;;1.53;1.00;;;17.50;83.60;;;;;;5024139;28;20529;-88
2024/03/11 08:26:12;;;;;;;2.37;1.10;;;17.40;81.80;;;;;;5023638;28;20539;-89
2024/03/11 08:28:39;;;;;;;1.03;0.93;;;16.90;80.40;;;;;;5023486;28;20456;-87
2024/03/11 08:31:07;;;;;;;1.75;1.30;;;18.20;81.70;;;;;;5022965;28;20547;-88
2024/03/11 08:33:36;;;;;;;1.05;0.90;;;17.50;81.70;;;;;;5015595;28;20481;-86
2024/03/11 08:36:05;;;;;;;1.80;0.90;;;17.00;82.70;;;;;;5017935;28;20360;-87
2024/03/11 08:38:32;;;;;;;1.80;0.90;;;16.20;84.10;;;;;;5021963;28;20264;-87
2024/03/11 08:40:58;;;;;;;1.20;1.10;;;16.30;85.30;;;;;;5025692;28;20205;-87
2024/03/11 08:43:24;;;;;;;1.00;0.90;;;16.00;84.50;;;;;;5025734;28;20185;-87
2024/03/11 08:45:50;;;;;;;1.20;1.10;;;16.70;85.40;;;;;;5023187;28;20206;-88
2024/03/11 08:48:16;;;;;;;1.20;0.90;;;17.30;83.10;;;;;;5035625;28;20194;-87
2024/03/11 08:50:42;;;;;;;3.50;2.33;;;16.80;83.40;;;;;;5024293;28;20742;-88
2024/03/11 08:53:08;;;;;;;1.00;0.80;;;17.90;83.30;;;;;;5021215;28;20202;-87
2024/03/11 08:55:34;;;;;;;0.80;0.70;;;17.30;81.90;;;;;;5023211;28;20703;-88
2024/03/11 08:58:05;;;;;;;0.97;0.80;;;17.90;80.70;;;;;;5027694;28;20213;-86
2024/03/11 09:00:31;;;;;;;0.90;0.85;;;17.70;78.60;;;;;;5020448;28;20489;-88
2024/03/11 09:02:57;;;;;;;1.20;0.80;;;18.00;79.70;;;;;;5026058;28;20308;-88
2024/03/11 09:05:26;;;;;;;0.80;0.77;;;18.20;78.90;;;;;;5026140;28;20262;-88
2024/03/11 09:07:51;;;;;;;1.60;1.10;;;19.10;76.50;;;;;;5023469;28;20446;-88
2024/03/11 09:10:18;;;;;;;0.90;0.70;;;18.70;77.00;;;;;;5022294;28;20202;-87
2024/03/11 09:12:44;;;;;;;0.90;0.73;;;18.20;77.10;;;;;;5039399;28;20193;-89
2024/03/11 09:15:16;;;;;;;1.40;1.00;;;17.70;78.70;;;;;;5021433;28;20274;-88
2024/03/11 09:17:43;;;;;;;1.20;0.77;;;17.60;77.30;;;;;;5028847;28;20182;-87
2024/03/11 09:20:15;;;;;;;0.90;0.77;;;17.80;77.20;;;;;;5021529;28;20619;-88
2024/03/11 09:22:45;;;;;;;1.00;0.85;;;17.80;76.50;;;;;;5025146;28;20663;-87
2024/03/11 09:25:15;;;;;;;1.70;0.90;;;18.10;77.40;;;;;;5025139;28;20282;-87
2024/03/11 09:27:41;;;;;;;2.83;0.80;;;18.60;77.00;;;;;;5024410;28;20261;-87
2024/03/11 09:30:07;;;;;;;1.90;0.65;;;18.30;76.50;;;;;;5039510;28;20182;-88
2024/03/11 09:32:33;;;;;;;2.28;2.08;;;18.50;75.50;;;;;;5025135;28;20197;-88
2024/03/11 09:35:00;;;;;;;1.53;0.80;;;17.90;78.30;;;;;;5030939;28;20570;-89
2024/03/11 09:37:25;;;;;;;1.10;0.80;;;18.50;77.40;;;;;;5025785;28;20205;-88
2024/03/11 09:39:51;;;;;;;0.90;0.70;;;18.60;76.10;;;;;;5023932;28;20261;-90
2024/03/11 09:42:18;;;;;;;1.20;0.80;;;19.20;74.70;;;;;;5029554;28;20187;-88
2024/03/11 09:44:44;;;;;;;4.22;0.98;;;19.10;73.70;;;;;;5027478;28;20293;-88
2024/03/11 09:47:10;;;;;;;1.00;0.90;;;20.00;73.40;;;;;;5021669;28;20211;-88
2024/03/11 09:49:36;;;;;;;1.60;1.20;;;20.80;69.70;;;;;;5032747;28;20244;-89
2024/03/11 09:52:02;;;;;;;3.53;1.00;;;21.40;67.90;;;;;;5021085;28;20229;-88
2024/03/11 09:54:28;;;;;;;2.30;1.93;;;20.90;65.40;;;;;;5024329;28;20540;-88
2024/03/11 09:56:55;;;;;;;1.53;0.80;;;21.70;63.30;;;;;;5039033;28;20548;-87
2024/03/11 09:59:25;;;;;;;1.30;1.20;;;22.60;62.70;;;;;;5027816;28;20517;-89
2024/03/11 10:01:54;;;;;;;1.80;1.10;;;22.40;62.10;;;;;;5027365;28;20500;-88
2024/03/11 10:04:25;;;;;;;1.70;0.90;;;22.60;60.40;;;;;;5029049;28;20446;-89
2024/03/11 10:07:04;;;;;;;0.87;0.70;;;22.80;58.20;;;;;;5020796;28;20929;-88
2024/03/11 10:09:31;;;;;;;0.97;0.77;;;22.70;58.90;;;;;;5029255;28;20437;-87
2024/03/11 10:12:09;;;;;;;1.30;0.90;;;23.30;57.50;;;;;;5027271;28;20831;-88
2024/03/11 10:14:36;;;;;;;1.20;1.10;;;23.00;56.50;;;;;;5047784;28;20476;-87
2024/03/11 10:17:19;;;;;;;1.10;0.90;;;23.90;56.20;;;;;;5028865;28;20461;-87
2024/03/11 10:19:47;;;;;;;3.13;1.50;;;22.40;56.40;;;;;;5033394;28;20991;-88
2024/03/11 10:22:22;;;;;;;0.90;0.80;;;22.50;56.70;;;;;;5033954;28;20437;-88
2024/03/11 10:24:47;;;;;;;1.30;0.87;;;22.70;55.90;;;;;;5028133;28;20940;-89
2024/03/11 10:27:20;;;;;;;2.13;0.70;;;22.30;56.10;;;;;;5031747;28;20460;-89
2024/03/11 10:29:46;;;;;;;1.70;1.20;;;21.80;55.90;;;;;;5055027;28;20190;-89
2024/03/11 10:32:32;;;;;;;1.00;0.83;;;21.30;58.60;;;;;;5023666;28;20445;-88
2024/03/11 10:34:58;;;;;;;1.13;0.70;;;21.40;57.90;;;;;;5013967;28;20218;-88
2024/03/11 10:37:24;;;;;;;0.90;0.80;;;21.70;57.60;;;;;;5012719;28;20497;-89
2024/03/11 10:39:50;;;;;;;2.30;0.60;;;21.90;57.10;;;;;;5029623;28;20908;-89
2024/03/11 10:42:28;;;;;;;1.63;0.83;;;21.00;57.90;;;;;;5030535;28;20457;-88
2024/03/11 10:44:54;;;;;;;1.98;0.80;;;20.40;58.80;;;;;;5020759;28;20640;-88
2024/03/11 10:47:22;;;;;;;2.88;1.20;;;20.30;58.00;;;;;;5024901;28;20248;-88
2024/03/11 10:49:51;;;;;;;2.17;1.20;;;20.40;59.70;;;;;;5034518;28;20197;-88
2024/03/11 10:52:20;;;;;;;0.90;0.80;;;20.20;58.80;;;;;;5024888;28;20199;-88
2024/03/11 10:54:50;;;;;;;1.13;0.93;;;20.30;59.40;;;;;;5028349;28;20200;-86
2024/03/11 10:57:38;;;;;;;2.20;1.23;;;20.00;61.20;;;;;;5024034;28;20223;-86
2024/03/11 11:00:19;;;;;;;2.55;0.90;;;18.70;61.00;;;;;;5022539;28;20217;-87
2024/03/11 11:02:57;;;;;;;2.42;0.95;;;19.00;61.90;;;;;;5026530;28;20178;-86
2024/03/11 11:05:32;;;;;;;0.80;0.70;;;18.80;61.60;;;;;;5029330;28;20742;-87
2024/03/11 11:08:04;;;;;;;1.33;0.90;;;19.20;62.60;;;;;;5029841;28;20657;-87
2024/03/11 11:10:35;;;;;;;3.30;1.80;;;19.30;61.70;;;;;;5033724;28;20194;-87
2024/03/11 11:13:02;;;;;;;1.30;0.98;;;19.20;59.70;;;;;;5039182;28;20217;-85
2024/03/11 11:15:28;;;;;;;0.95;0.85;;;18.60;61.30;;;;;;5019824;28;20687;-86
2024/03/11 11:17:56;;;;;;;1.75;0.80;;;17.90;62.80;;;;;;5027761;28;20182;-86
2024/03/11 11:20:38;;;;;;;1.45;1.00;;;17.50;60.70;;;;;;5027647;28;20233;-86
2024/03/11 11:23:05;;;;;;;1.50;1.33;;;17.60;63.10;;;;;;5022159;28;20194;-87
2024/03/11 11:25:34;;;;;;;0.90;0.70;;;18.10;64.80;;;;;;5027400;28;20216;-87
2024/03/11 11:28:02;;;;;;;0.80;0.80;;;18.70;62.60;;;;;;5026803;28;20184;-86
2024/03/11 11:30:28;;;;;;;0.98;0.90;;;18.40;60.80;;;;;;5028686;28;20254;-86
2024/03/11 11:32:54;;;;;;;3.45;1.00;;;19.20;59.50;;;;;;5028480;28;20186;-86
2024/03/11 11:35:36;;;;;;;1.83;1.20;;;19.60;59.00;;;;;;5025442;28;20647;-86
2024/03/11 11:38:23;;;;;;;1.35;1.20;;;20.50;58.70;;;;;;5024233;28;20265;-87
2024/03/11 11:40:50;;;;;;;1.10;0.85;;;20.50;57.20;;;;;;5041152;28;20198;-86
2024/03/11 11:43:40;;;;;;;2.90;1.40;;;20.50;57.10;;;;;;5024789;28;20681;-86
2024/03/11 11:46:09;;;;;;;1.30;1.20;;;20.90;57.70;;;;;;5043193;28;20297;-85
2024/03/11 11:48:37;;;;;;;1.60;1.00;;;21.30;57.10;;;;;;5026691;28;20553;-85
2024/03/11 11:51:03;;;;;;;0.80;0.70;;;20.80;57.50;;;;;;5035576;28;20436;-86
2024/03/11 11:53:31;;;;;;;1.00;0.88;;;20.40;57.10;;;;;;5045755;28;20642;-86
2024/03/11 11:55:57;;;;;;;1.52;0.90;;;19.50;56.70;;;;;;5041940;28;20226;-86
2024/03/11 11:58:24;;;;;;;1.35;1.15;;;19.40;58.00;;;;;;5033352;28;20186;-84
2024/03/11 12:00:58;;;;;;;0.90;0.63;;;19.30;58.50;;;;;;5027242;28;20214;-85
2024/03/11 12:03:34;;;;;;;1.10;0.90;;;19.30;59.00;;;;;;5028379;28;20340;-85
2024/03/11 12:06:08;;;;;;;0.88;0.60;;;18.60;58.60;;;;;;5020439;28;20197;-85
2024/03/11 12:08:34;;;;;;;1.52;1.00;;;18.40;59.80;;;;;;5032595;28;20193;-87
2024/03/11 12:11:15;;;;;;;1.75;0.90;;;17.70;60.40;;;;;;5022758;28;20645;-86
2024/03/11 12:13:42;;;;;;;0.82;0.70;;;18.20;61.00;;;;;;5027084;28;20199;-87
2024/03/11 12:16:12;;;;;;;1.17;0.73;;;17.80;61.00;;;;;;5025536;28;20305;-86
2024/03/11 12:18:39;;;;;;;3.35;1.05;;;17.60;62.40;;;;;;5022670;28;20197;-87
2024/03/11 12:21:11;;;;;;;0.90;0.70;;;17.60;62.80;;;;;;5031704;28;20516;-86
2024/03/11 12:23:38;;;;;;;0.75;0.70;;;16.80;62.50;;;;;;5022689;28;20673;-85
2024/03/11 12:26:06;;;;;;;0.93;0.82;;;17.50;64.80;;;;;;5041342;28;20201;-86
2024/03/11 12:28:32;;;;;;;1.02;0.90;;;17.30;65.00;;;;;;5040026;28;20257;-85
2024/03/11 12:30:58;;;;;;;1.03;0.80;;;17.50;65.20;;;;;;5025600;28;20221;-86
2024/03/11 12:33:23;;;;;;;1.53;0.80;;;18.10;64.20;;;;;;5020682;28;20218;-86
2024/03/11 12:35:52;;;;;;;1.50;1.00;;;17.80;61.50;;;;;;5023561;28;20296;-86
2024/03/11 12:38:18;;;;;;;2.38;0.80;;;17.90;61.10;;;;;;5016401;28;20535;-84
2024/03/11 12:40:44;;;;;;;0.90;0.70;;;17.80;61.80;;;;;;5023889;28;20799;-86
2024/03/11 12:43:14;;;;;;;0.93;0.70;;;18.10;60.70;;;;;;5024465;28;20193;-85
2024/03/11 12:45:47;;;;;;;1.23;1.00;;;17.60;61.70;;;;;;5020923;28;20210;-85
2024/03/11 12:48:13;;;;;;;1.35;1.20;;;17.40;62.30;;;;;;5022709;28;20190;-86
2024/03/11 12:50:40;;;;;;;1.17;0.87;;;17.50;62.10;;;;;;5019807;28;20186;-86
2024/03/11 12:53:07;;;;;;;1.65;1.20;;;17.90;57.60;;;;;;5023110;28;20605;-86